Salt Lake City, Utah
Traffic Map
Current Weather Conditions
Salt Lake City, Utah
Broken Clouds
Broken Clouds
18°
Feels Like: 18°
Wind Chill: 18° Ceiling: 15000
Heat Index: 18° Visibility: 10mi
Dew Point: 13° Wind: 5mph
Humidity: 72% Direction: 150° (SSE)
Pressure: 30.07in Gusts: 0mph
Raw Report DataKSLC 040653Z 15004KT 10SM BKN150 18/13 A3007 RMK AO2 SLP145 T01780128 402390167 $
Traffic Incident Summary
Active as of:
Severity:
Category:
InformationThere was an issue retrieving the traffic information for this location. Please try a different location or try again shortly.
Advertisements
Track Severe Weather on mobile